sensor_id;sensor_type;location;lat;lon;timestamp;temperature;humidity
14723;DHT22;7452;55.594;12.986;2022-07-23T00:00:31;15.90;99.90
14723;DHT22;7452;55.594;12.986;2022-07-23T00:02:58;15.90;99.90
14723;DHT22;7452;55.594;12.986;2022-07-23T00:05:25;15.90;99.90
14723;DHT22;7452;55.594;12.986;2022-07-23T00:07:53;15.90;99.90
14723;DHT22;7452;55.594;12.986;2022-07-23T00:10:21;15.90;99.90
14723;DHT22;7452;55.594;12.986;2022-07-23T00:12:47;15.90;99.90
14723;DHT22;7452;55.594;12.986;2022-07-23T00:15:14;15.90;99.90
14723;DHT22;7452;55.594;12.986;2022-07-23T00:17:41;15.80;99.90
14723;DHT22;7452;55.594;12.986;2022-07-23T00:20:09;15.80;99.90
14723;DHT22;7452;55.594;12.986;2022-07-23T00:22:36;15.80;99.90
14723;DHT22;7452;55.594;12.986;2022-07-23T00:25:05;15.70;99.90
14723;DHT22;7452;55.594;12.986;2022-07-23T00:27:32;15.70;99.90
14723;DHT22;7452;55.594;12.986;2022-07-23T00:29:58;15.70;99.90
14723;DHT22;7452;55.594;12.986;2022-07-23T00:32:25;15.70;99.90
14723;DHT22;7452;55.594;12.986;2022-07-23T00:34:52;15.70;99.90
14723;DHT22;7452;55.594;12.986;2022-07-23T00:37:19;15.70;99.90
14723;DHT22;7452;55.594;12.986;2022-07-23T00:39:46;15.70;99.90
14723;DHT22;7452;55.594;12.986;2022-07-23T00:42:15;15.70;99.90
14723;DHT22;7452;55.594;12.986;2022-07-23T00:44:41;15.70;99.90
14723;DHT22;7452;55.594;12.986;2022-07-23T00:47:09;15.60;99.90
14723;DHT22;7452;55.594;12.986;2022-07-23T00:49:36;15.70;99.90
14723;DHT22;7452;55.594;12.986;2022-07-23T00:52:03;15.70;99.90
14723;DHT22;7452;55.594;12.986;2022-07-23T00:54:31;15.60;99.90
14723;DHT22;7452;55.594;12.986;2022-07-23T00:56:59;15.60;99.90
14723;DHT22;7452;55.594;12.986;2022-07-23T00:59:27;15.60;99.90
14723;DHT22;7452;55.594;12.986;2022-07-23T01:01:54;15.60;99.90
14723;DHT22;7452;55.594;12.986;2022-07-23T01:04:21;15.60;99.90
14723;DHT22;7452;55.594;12.986;2022-07-23T01:06:48;15.70;99.90
14723;DHT22;7452;55.594;12.986;2022-07-23T01:09:15;15.70;99.90
14723;DHT22;7452;55.594;12.986;2022-07-23T01:11:42;15.70;99.90
14723;DHT22;7452;55.594;12.986;2022-07-23T01:14:11;15.70;99.90
14723;DHT22;7452;55.594;12.986;2022-07-23T01:16:39;15.70;99.90
14723;DHT22;7452;55.594;12.986;2022-07-23T01:19:07;15.70;99.90
14723;DHT22;7452;55.594;12.986;2022-07-23T01:21:39;15.70;99.90
14723;DHT22;7452;55.594;12.986;2022-07-23T01:24:08;15.60;99.90
14723;DHT22;7452;55.594;12.986;2022-07-23T01:26:37;15.60;99.90
14723;DHT22;7452;55.594;12.986;2022-07-23T01:29:04;15.50;99.90
14723;DHT22;7452;55.594;12.986;2022-07-23T01:31:31;15.50;99.90
14723;DHT22;7452;55.594;12.986;2022-07-23T01:33:59;15.50;99.90
14723;DHT22;7452;55.594;12.986;2022-07-23T01:36:26;15.60;99.90
14723;DHT22;7452;55.594;12.986;2022-07-23T01:38:53;15.60;99.90
14723;DHT22;7452;55.594;12.986;2022-07-23T01:41:22;15.60;99.90
14723;DHT22;7452;55.594;12.986;2022-07-23T01:43:49;15.60;99.90
14723;DHT22;7452;55.594;12.986;2022-07-23T01:46:16;15.60;99.90
14723;DHT22;7452;55.594;12.986;2022-07-23T01:48:43;15.60;99.90
14723;DHT22;7452;55.594;12.986;2022-07-23T01:51:10;15.60;99.90
14723;DHT22;7452;55.594;12.986;2022-07-23T01:53:37;15.60;99.90
14723;DHT22;7452;55.594;12.986;2022-07-23T01:56:04;15.50;99.90
14723;DHT22;7452;55.594;12.986;2022-07-23T01:58:33;15.50;99.90
14723;DHT22;7452;55.594;12.986;2022-07-23T02:01:00;15.50;99.90
14723;DHT22;7452;55.594;12.986;2022-07-23T02:03:27;15.50;99.90
14723;DHT22;7452;55.594;12.986;2022-07-23T02:05:54;15.50;99.90
14723;DHT22;7452;55.594;12.986;2022-07-23T02:08:21;15.50;99.90
14723;DHT22;7452;55.594;12.986;2022-07-23T02:10:47;15.50;99.90
14723;DHT22;7452;55.594;12.986;2022-07-23T02:13:17;15.50;99.90
14723;DHT22;7452;55.594;12.986;2022-07-23T02:15:45;15.50;99.90
14723;DHT22;7452;55.594;12.986;2022-07-23T02:18:12;15.50;99.90
14723;DHT22;7452;55.594;12.986;2022-07-23T02:20:39;15.40;99.90
14723;DHT22;7452;55.594;12.986;2022-07-23T02:23:06;15.40;99.90
14723;DHT22;7452;55.594;12.986;2022-07-23T02:25:33;15.30;99.90
14723;DHT22;7452;55.594;12.986;2022-07-23T02:28:00;15.30;99.90
14723;DHT22;7452;55.594;12.986;2022-07-23T02:30:28;15.30;99.90
14723;DHT22;7452;55.594;12.986;2022-07-23T02:32:56;15.30;99.90
14723;DHT22;7452;55.594;12.986;2022-07-23T02:35:23;15.30;99.90
14723;DHT22;7452;55.594;12.986;2022-07-23T02:37:50;15.30;99.90
14723;DHT22;7452;55.594;12.986;2022-07-23T02:40:17;15.20;99.90
14723;DHT22;7452;55.594;12.986;2022-07-23T02:42:44;15.20;99.90
14723;DHT22;7452;55.594;12.986;2022-07-23T02:45:11;15.10;99.90
14723;DHT22;7452;55.594;12.986;2022-07-23T02:47:38;15.10;99.90
14723;DHT22;7452;55.594;12.986;2022-07-23T02:50:07;15.20;99.90
14723;DHT22;7452;55.594;12.986;2022-07-23T02:52:34;15.10;99.90
14723;DHT22;7452;55.594;12.986;2022-07-23T02:55:02;15.10;99.90
14723;DHT22;7452;55.594;12.986;2022-07-23T02:57:29;15.10;99.90
14723;DHT22;7452;55.594;12.986;2022-07-23T02:59:56;15.10;99.90
14723;DHT22;7452;55.594;12.986;2022-07-23T03:02:23;15.10;99.90
14723;DHT22;7452;55.594;12.986;2022-07-23T03:04:50;15.10;99.90
14723;DHT22;7452;55.594;12.986;2022-07-23T03:07:19;15.10;99.90
14723;DHT22;7452;55.594;12.986;2022-07-23T03:09:46;15.10;99.90
14723;DHT22;7452;55.594;12.986;2022-07-23T03:12:13;15.10;99.90
14723;DHT22;7452;55.594;12.986;2022-07-23T03:14:40;15.20;99.90
14723;DHT22;7452;55.594;12.986;2022-07-23T03:17:07;15.20;99.90
14723;DHT22;7452;55.594;12.986;2022-07-23T03:19:35;15.20;99.90
14723;DHT22;7452;55.594;12.986;2022-07-23T03:22:02;15.20;99.90
14723;DHT22;7452;55.594;12.986;2022-07-23T03:24:30;15.20;99.90
14723;DHT22;7452;55.594;12.986;2022-07-23T03:27:11;15.20;99.90
14723;DHT22;7452;55.594;12.986;2022-07-23T03:29:38;15.20;99.90
14723;DHT22;7452;55.594;12.986;2022-07-23T03:32:05;15.20;99.90
14723;DHT22;7452;55.594;12.986;2022-07-23T03:34:32;15.20;99.90
14723;DHT22;7452;55.594;12.986;2022-07-23T03:36:59;15.20;99.90
14723;DHT22;7452;55.594;12.986;2022-07-23T03:39:26;15.20;99.90
14723;DHT22;7452;55.594;12.986;2022-07-23T03:41:54;15.20;99.90
14723;DHT22;7452;55.594;12.986;2022-07-23T03:44:21;15.10;99.90
14723;DHT22;7452;55.594;12.986;2022-07-23T03:46:48;15.10;99.90
14723;DHT22;7452;55.594;12.986;2022-07-23T03:49:15;15.10;99.90
14723;DHT22;7452;55.594;12.986;2022-07-23T03:51:42;15.00;99.90
14723;DHT22;7452;55.594;12.986;2022-07-23T03:54:09;15.00;99.90
14723;DHT22;7452;55.594;12.986;2022-07-23T03:56:36;15.00;99.90
14723;DHT22;7452;55.594;12.986;2022-07-23T03:59:05;15.00;99.90
14723;DHT22;7452;55.594;12.986;2022-07-23T04:01:32;14.90;99.90
14723;DHT22;7452;55.594;12.986;2022-07-23T04:03:59;14.90;99.90
14723;DHT22;7452;55.594;12.986;2022-07-23T04:06:26;14.90;99.90
14723;DHT22;7452;55.594;12.986;2022-07-23T04:08:53;14.90;99.90
14723;DHT22;7452;55.594;12.986;2022-07-23T04:11:20;14.80;99.90
14723;DHT22;7452;55.594;12.986;2022-07-23T04:13:47;14.80;99.90
14723;DHT22;7452;55.594;12.986;2022-07-23T04:16:15;14.70;99.90
14723;DHT22;7452;55.594;12.986;2022-07-23T04:18:42;14.70;99.90
14723;DHT22;7452;55.594;12.986;2022-07-23T04:21:09;14.60;99.90
14723;DHT22;7452;55.594;12.986;2022-07-23T04:23:36;14.60;99.90
14723;DHT22;7452;55.594;12.986;2022-07-23T04:26:03;14.50;99.90
14723;DHT22;7452;55.594;12.986;2022-07-23T04:28:30;14.50;99.90
14723;DHT22;7452;55.594;12.986;2022-07-23T04:30:57;14.60;99.90
14723;DHT22;7452;55.594;12.986;2022-07-23T04:33:26;14.60;99.90
14723;DHT22;7452;55.594;12.986;2022-07-23T04:35:53;14.50;99.90
14723;DHT22;7452;55.594;12.986;2022-07-23T04:38:20;14.50;99.90
14723;DHT22;7452;55.594;12.986;2022-07-23T04:40:47;14.50;99.90
14723;DHT22;7452;55.594;12.986;2022-07-23T04:43:14;14.50;99.90
14723;DHT22;7452;55.594;12.986;2022-07-23T04:45:41;14.50;99.90
14723;DHT22;7452;55.594;12.986;2022-07-23T04:48:08;14.50;99.90
14723;DHT22;7452;55.594;12.986;2022-07-23T04:50:36;14.50;99.90
14723;DHT22;7452;55.594;12.986;2022-07-23T04:53:03;14.50;99.90
14723;DHT22;7452;55.594;12.986;2022-07-23T04:55:30;14.50;99.90
14723;DHT22;7452;55.594;12.986;2022-07-23T04:57:57;14.50;99.90
14723;DHT22;7452;55.594;12.986;2022-07-23T05:00:24;14.40;99.90
14723;DHT22;7452;55.594;12.986;2022-07-23T05:02:51;14.40;99.90
14723;DHT22;7452;55.594;12.986;2022-07-23T05:05:18;14.40;99.90
14723;DHT22;7452;55.594;12.986;2022-07-23T05:07:46;14.40;99.90
14723;DHT22;7452;55.594;12.986;2022-07-23T05:10:13;14.50;99.90
14723;DHT22;7452;55.594;12.986;2022-07-23T05:12:40;14.50;99.90
14723;DHT22;7452;55.594;12.986;2022-07-23T05:15:07;14.50;99.90
14723;DHT22;7452;55.594;12.986;2022-07-23T05:17:34;14.40;99.90
14723;DHT22;7452;55.594;12.986;2022-07-23T05:20:01;14.50;99.90
14723;DHT22;7452;55.594;12.986;2022-07-23T05:22:28;14.50;99.90
14723;DHT22;7452;55.594;12.986;2022-07-23T05:24:57;14.50;99.90
14723;DHT22;7452;55.594;12.986;2022-07-23T05:27:24;14.50;99.90
14723;DHT22;7452;55.594;12.986;2022-07-23T05:29:51;14.50;99.90
14723;DHT22;7452;55.594;12.986;2022-07-23T05:32:18;14.40;99.90
14723;DHT22;7452;55.594;12.986;2022-07-23T05:34:45;14.50;99.90
14723;DHT22;7452;55.594;12.986;2022-07-23T05:37:12;14.50;99.90
14723;DHT22;7452;55.594;12.986;2022-07-23T05:39:38;14.50;99.90
14723;DHT22;7452;55.594;12.986;2022-07-23T05:42:07;14.50;99.90
14723;DHT22;7452;55.594;12.986;2022-07-23T05:44:34;14.50;99.90
14723;DHT22;7452;55.594;12.986;2022-07-23T05:47:01;14.60;99.90
14723;DHT22;7452;55.594;12.986;2022-07-23T05:49:28;14.50;99.90
14723;DHT22;7452;55.594;12.986;2022-07-23T05:51:55;14.50;99.90
14723;DHT22;7452;55.594;12.986;2022-07-23T05:54:22;14.50;99.90
14723;DHT22;7452;55.594;12.986;2022-07-23T05:56:49;14.60;99.90
14723;DHT22;7452;55.594;12.986;2022-07-23T05:59:19;14.60;99.90
14723;DHT22;7452;55.594;12.986;2022-07-23T06:01:46;14.50;99.90
14723;DHT22;7452;55.594;12.986;2022-07-23T06:04:13;14.50;99.90
14723;DHT22;7452;55.594;12.986;2022-07-23T06:06:40;14.50;99.90
14723;DHT22;7452;55.594;12.986;2022-07-23T06:09:07;14.50;99.90
14723;DHT22;7452;55.594;12.986;2022-07-23T06:11:35;14.50;99.90
14723;DHT22;7452;55.594;12.986;2022-07-23T06:14:02;14.50;99.90
14723;DHT22;7452;55.594;12.986;2022-07-23T06:16:30;14.60;99.90
14723;DHT22;7452;55.594;12.986;2022-07-23T06:18:57;14.50;99.90
14723;DHT22;7452;55.594;12.986;2022-07-23T06:21:24;14.60;99.90
14723;DHT22;7452;55.594;12.986;2022-07-23T06:23:51;14.60;99.90
14723;DHT22;7452;55.594;12.986;2022-07-23T06:26:18;14.60;99.90
14723;DHT22;7452;55.594;12.986;2022-07-23T06:28:45;14.60;99.90
14723;DHT22;7452;55.594;12.986;2022-07-23T06:31:12;14.70;99.90
14723;DHT22;7452;55.594;12.986;2022-07-23T06:33:40;14.60;99.90
14723;DHT22;7452;55.594;12.986;2022-07-23T06:36:08;14.60;99.90
14723;DHT22;7452;55.594;12.986;2022-07-23T06:38:34;14.70;99.90
14723;DHT22;7452;55.594;12.986;2022-07-23T06:41:01;14.70;99.90
14723;DHT22;7452;55.594;12.986;2022-07-23T06:43:30;14.80;99.90
14723;DHT22;7452;55.594;12.986;2022-07-23T06:45:57;14.80;99.90
14723;DHT22;7452;55.594;12.986;2022-07-23T06:48:24;14.90;99.90
14723;DHT22;7452;55.594;12.986;2022-07-23T06:50:53;14.90;99.90
14723;DHT22;7452;55.594;12.986;2022-07-23T06:53:20;14.80;99.90
14723;DHT22;7452;55.594;12.986;2022-07-23T06:55:47;14.80;99.90
14723;DHT22;7452;55.594;12.986;2022-07-23T06:58:14;14.90;99.90
14723;DHT22;7452;55.594;12.986;2022-07-23T07:00:41;14.80;99.90
14723;DHT22;7452;55.594;12.986;2022-07-23T07:03:08;14.70;99.90
14723;DHT22;7452;55.594;12.986;2022-07-23T07:05:35;14.70;99.90
14723;DHT22;7452;55.594;12.986;2022-07-23T07:08:04;14.80;99.90
14723;DHT22;7452;55.594;12.986;2022-07-23T07:10:31;14.80;99.90
14723;DHT22;7452;55.594;12.986;2022-07-23T07:12:58;14.80;99.90
14723;DHT22;7452;55.594;12.986;2022-07-23T07:15:25;14.80;99.90
14723;DHT22;7452;55.594;12.986;2022-07-23T07:17:52;14.80;99.90
14723;DHT22;7452;55.594;12.986;2022-07-23T07:20:19;14.80;99.90
14723;DHT22;7452;55.594;12.986;2022-07-23T07:22:46;14.80;99.90
14723;DHT22;7452;55.594;12.986;2022-07-23T07:25:14;14.80;99.90
14723;DHT22;7452;55.594;12.986;2022-07-23T07:27:42;14.90;99.90
14723;DHT22;7452;55.594;12.986;2022-07-23T07:30:10;14.80;99.90
14723;DHT22;7452;55.594;12.986;2022-07-23T07:32:38;14.80;99.90
14723;DHT22;7452;55.594;12.986;2022-07-23T07:35:05;14.70;99.90
14723;DHT22;7452;55.594;12.986;2022-07-23T07:37:33;14.70;99.90
14723;DHT22;7452;55.594;12.986;2022-07-23T07:39:59;14.70;99.90
14723;DHT22;7452;55.594;12.986;2022-07-23T07:42:28;14.70;99.90
14723;DHT22;7452;55.594;12.986;2022-07-23T07:44:55;14.70;99.90
14723;DHT22;7452;55.594;12.986;2022-07-23T07:47:22;14.70;99.90
14723;DHT22;7452;55.594;12.986;2022-07-23T07:49:49;14.80;99.90
14723;DHT22;7452;55.594;12.986;2022-07-23T07:52:16;14.80;99.90
14723;DHT22;7452;55.594;12.986;2022-07-23T07:54:43;14.90;99.90
14723;DHT22;7452;55.594;12.986;2022-07-23T07:57:10;14.90;99.90
14723;DHT22;7452;55.594;12.986;2022-07-23T07:59:38;14.90;99.90
14723;DHT22;7452;55.594;12.986;2022-07-23T08:02:06;15.00;99.90
14723;DHT22;7452;55.594;12.986;2022-07-23T08:04:33;15.20;99.90
14723;DHT22;7452;55.594;12.986;2022-07-23T08:07:00;15.30;99.90
14723;DHT22;7452;55.594;12.986;2022-07-23T08:09:27;15.30;99.90
14723;DHT22;7452;55.594;12.986;2022-07-23T08:11:54;15.30;99.90
14723;DHT22;7452;55.594;12.986;2022-07-23T08:14:21;15.30;99.90
14723;DHT22;7452;55.594;12.986;2022-07-23T08:16:49;15.40;99.90
14723;DHT22;7452;55.594;12.986;2022-07-23T08:19:16;15.30;99.90
14723;DHT22;7452;55.594;12.986;2022-07-23T08:21:43;15.30;99.90
14723;DHT22;7452;55.594;12.986;2022-07-23T08:24:10;15.40;99.90
14723;DHT22;7452;55.594;12.986;2022-07-23T08:26:37;15.40;99.90
14723;DHT22;7452;55.594;12.986;2022-07-23T08:29:04;15.50;99.90
14723;DHT22;7452;55.594;12.986;2022-07-23T08:31:31;15.50;99.90
14723;DHT22;7452;55.594;12.986;2022-07-23T08:34:00;15.50;99.90
14723;DHT22;7452;55.594;12.986;2022-07-23T08:36:28;15.60;99.90
14723;DHT22;7452;55.594;12.986;2022-07-23T08:38:57;15.60;99.90
14723;DHT22;7452;55.594;12.986;2022-07-23T08:41:24;15.70;99.90
14723;DHT22;7452;55.594;12.986;2022-07-23T08:43:51;15.60;99.90
14723;DHT22;7452;55.594;12.986;2022-07-23T08:46:19;15.60;99.90
14723;DHT22;7452;55.594;12.986;2022-07-23T08:48:48;15.60;99.90
14723;DHT22;7452;55.594;12.986;2022-07-23T08:51:17;15.60;99.90
14723;DHT22;7452;55.594;12.986;2022-07-23T08:53:44;15.60;99.90
14723;DHT22;7452;55.594;12.986;2022-07-23T08:56:12;15.60;99.90
14723;DHT22;7452;55.594;12.986;2022-07-23T08:58:39;15.60;99.90
14723;DHT22;7452;55.594;12.986;2022-07-23T09:01:06;15.50;99.90
14723;DHT22;7452;55.594;12.986;2022-07-23T09:03:35;15.60;99.90
14723;DHT22;7452;55.594;12.986;2022-07-23T09:06:02;15.60;99.90
14723;DHT22;7452;55.594;12.986;2022-07-23T09:08:36;15.50;99.90
14723;DHT22;7452;55.594;12.986;2022-07-23T09:11:05;15.60;99.90
14723;DHT22;7452;55.594;12.986;2022-07-23T09:13:36;15.60;99.90
14723;DHT22;7452;55.594;12.986;2022-07-23T09:16:07;15.60;99.90
14723;DHT22;7452;55.594;12.986;2022-07-23T09:18:40;15.50;99.90
14723;DHT22;7452;55.594;12.986;2022-07-23T09:21:15;15.50;99.90
14723;DHT22;7452;55.594;12.986;2022-07-23T09:23:46;15.20;99.90
14723;DHT22;7452;55.594;12.986;2022-07-23T09:26:21;15.40;99.90
14723;DHT22;7452;55.594;12.986;2022-07-23T09:28:57;15.30;99.90
14723;DHT22;7452;55.594;12.986;2022-07-23T09:31:27;15.40;99.90
14723;DHT22;7452;55.594;12.986;2022-07-23T09:34:10;15.30;99.90
14723;DHT22;7452;55.594;12.986;2022-07-23T09:36:38;15.30;99.90
14723;DHT22;7452;55.594;12.986;2022-07-23T09:39:07;15.30;99.90
14723;DHT22;7452;55.594;12.986;2022-07-23T09:41:36;15.40;99.90
14723;DHT22;7452;55.594;12.986;2022-07-23T09:44:14;15.40;99.90
14723;DHT22;7452;55.594;12.986;2022-07-23T09:46:42;15.50;99.90
14723;DHT22;7452;55.594;12.986;2022-07-23T09:49:12;15.50;99.90
14723;DHT22;7452;55.594;12.986;2022-07-23T09:51:51;15.50;99.90
14723;DHT22;7452;55.594;12.986;2022-07-23T09:54:39;15.60;99.90
14723;DHT22;7452;55.594;12.986;2022-07-23T09:57:08;15.60;99.90
14723;DHT22;7452;55.594;12.986;2022-07-23T09:59:37;15.60;99.90
14723;DHT22;7452;55.594;12.986;2022-07-23T10:02:06;15.70;99.90
14723;DHT22;7452;55.594;12.986;2022-07-23T10:04:34;15.60;99.90
14723;DHT22;7452;55.594;12.986;2022-07-23T10:07:03;15.70;99.90
14723;DHT22;7452;55.594;12.986;2022-07-23T10:09:33;15.60;99.90
14723;DHT22;7452;55.594;12.986;2022-07-23T10:12:01;15.60;99.90
14723;DHT22;7452;55.594;12.986;2022-07-23T10:14:45;15.60;99.90
14723;DHT22;7452;55.594;12.986;2022-07-23T10:17:13;15.60;99.90
14723;DHT22;7452;55.594;12.986;2022-07-23T10:19:41;15.60;99.90
14723;DHT22;7452;55.594;12.986;2022-07-23T10:22:10;15.60;99.90
14723;DHT22;7452;55.594;12.986;2022-07-23T10:24:50;15.60;99.90
14723;DHT22;7452;55.594;12.986;2022-07-23T10:27:43;15.60;99.90
14723;DHT22;7452;55.594;12.986;2022-07-23T10:30:18;15.60;99.90
14723;DHT22;7452;55.594;12.986;2022-07-23T10:32:56;15.70;99.90
14723;DHT22;7452;55.594;12.986;2022-07-23T10:35:31;15.70;99.90
14723;DHT22;7452;55.594;12.986;2022-07-23T10:38:05;15.70;99.90
14723;DHT22;7452;55.594;12.986;2022-07-23T10:40:35;15.80;99.90
14723;DHT22;7452;55.594;12.986;2022-07-23T10:43:13;15.90;99.90
14723;DHT22;7452;55.594;12.986;2022-07-23T10:45:42;16.00;99.90
14723;DHT22;7452;55.594;12.986;2022-07-23T10:48:14;16.10;99.90
14723;DHT22;7452;55.594;12.986;2022-07-23T10:50:42;16.30;99.90
14723;DHT22;7452;55.594;12.986;2022-07-23T10:53:14;16.30;99.90
14723;DHT22;7452;55.594;12.986;2022-07-23T10:55:49;16.40;99.90
14723;DHT22;7452;55.594;12.986;2022-07-23T10:58:21;16.40;99.90
14723;DHT22;7452;55.594;12.986;2022-07-23T11:00:48;16.40;99.90
14723;DHT22;7452;55.594;12.986;2022-07-23T11:03:32;16.40;99.90
14723;DHT22;7452;55.594;12.986;2022-07-23T11:06:02;16.50;99.90
14723;DHT22;7452;55.594;12.986;2022-07-23T11:08:30;16.60;99.90
14723;DHT22;7452;55.594;12.986;2022-07-23T11:11:10;16.80;99.90
14723;DHT22;7452;55.594;12.986;2022-07-23T11:13:44;16.80;99.90
14723;DHT22;7452;55.594;12.986;2022-07-23T11:16:20;16.80;99.90
14723;DHT22;7452;55.594;12.986;2022-07-23T11:19:07;16.80;99.90
14723;DHT22;7452;55.594;12.986;2022-07-23T11:21:45;16.70;99.90
14723;DHT22;7452;55.594;12.986;2022-07-23T11:24:17;16.70;99.90
14723;DHT22;7452;55.594;12.986;2022-07-23T11:26:58;16.60;99.90
14723;DHT22;7452;55.594;12.986;2022-07-23T11:29:39;16.50;99.90
14723;DHT22;7452;55.594;12.986;2022-07-23T11:32:08;16.60;99.90
14723;DHT22;7452;55.594;12.986;2022-07-23T11:34:39;16.50;99.90
14723;DHT22;7452;55.594;12.986;2022-07-23T11:37:07;16.50;99.90
14723;DHT22;7452;55.594;12.986;2022-07-23T11:39:35;16.40;99.90
14723;DHT22;7452;55.594;12.986;2022-07-23T11:42:05;16.40;99.90
14723;DHT22;7452;55.594;12.986;2022-07-23T11:44:34;16.50;99.90
14723;DHT22;7452;55.594;12.986;2022-07-23T11:47:04;16.50;99.90
14723;DHT22;7452;55.594;12.986;2022-07-23T11:49:31;16.50;99.90
14723;DHT22;7452;55.594;12.986;2022-07-23T11:52:06;16.50;99.90
14723;DHT22;7452;55.594;12.986;2022-07-23T11:54:34;16.50;99.90
14723;DHT22;7452;55.594;12.986;2022-07-23T11:57:03;16.50;99.90
14723;DHT22;7452;55.594;12.986;2022-07-23T11:59:32;16.60;99.90
14723;DHT22;7452;55.594;12.986;2022-07-23T12:02:01;16.60;99.90
14723;DHT22;7452;55.594;12.986;2022-07-23T12:04:37;16.60;99.90
14723;DHT22;7452;55.594;12.986;2022-07-23T12:09:47;16.50;99.90
14723;DHT22;7452;55.594;12.986;2022-07-23T12:12:15;16.40;99.90
14723;DHT22;7452;55.594;12.986;2022-07-23T12:14:48;16.40;99.90
14723;DHT22;7452;55.594;12.986;2022-07-23T12:17:15;16.30;99.90
14723;DHT22;7452;55.594;12.986;2022-07-23T12:19:42;16.30;99.90
14723;DHT22;7452;55.594;12.986;2022-07-23T12:22:09;16.30;99.90
14723;DHT22;7452;55.594;12.986;2022-07-23T12:24:58;16.30;99.90
14723;DHT22;7452;55.594;12.986;2022-07-23T12:27:27;16.40;99.90
14723;DHT22;7452;55.594;12.986;2022-07-23T12:29:54;16.50;99.90
14723;DHT22;7452;55.594;12.986;2022-07-23T12:32:22;16.60;99.90
14723;DHT22;7452;55.594;12.986;2022-07-23T12:34:53;16.70;99.90
14723;DHT22;7452;55.594;12.986;2022-07-23T12:37:29;16.70;99.90
14723;DHT22;7452;55.594;12.986;2022-07-23T12:39:56;16.90;99.90
14723;DHT22;7452;55.594;12.986;2022-07-23T12:42:23;17.00;99.90
14723;DHT22;7452;55.594;12.986;2022-07-23T12:45:09;17.10;99.90
14723;DHT22;7452;55.594;12.986;2022-07-23T12:47:59;17.00;99.90
14723;DHT22;7452;55.594;12.986;2022-07-23T12:50:35;17.00;99.90
14723;DHT22;7452;55.594;12.986;2022-07-23T12:53:07;17.00;99.90
14723;DHT22;7452;55.594;12.986;2022-07-23T12:55:34;17.00;99.90
14723;DHT22;7452;55.594;12.986;2022-07-23T12:58:10;17.00;99.90
14723;DHT22;7452;55.594;12.986;2022-07-23T13:01:00;16.90;99.90
14723;DHT22;7452;55.594;12.986;2022-07-23T13:03:36;16.90;99.90
14723;DHT22;7452;55.594;12.986;2022-07-23T13:06:06;16.80;99.90
14723;DHT22;7452;55.594;12.986;2022-07-23T13:08:35;16.70;99.90
14723;DHT22;7452;55.594;12.986;2022-07-23T13:11:03;16.60;99.90
14723;DHT22;7452;55.594;12.986;2022-07-23T13:13:32;16.50;99.90
14723;DHT22;7452;55.594;12.986;2022-07-23T13:16:01;16.50;99.90
14723;DHT22;7452;55.594;12.986;2022-07-23T13:18:31;16.50;99.90
14723;DHT22;7452;55.594;12.986;2022-07-23T13:20:58;16.40;99.90
14723;DHT22;7452;55.594;12.986;2022-07-23T13:23:25;16.40;99.90
14723;DHT22;7452;55.594;12.986;2022-07-23T13:25:52;16.40;99.90
14723;DHT22;7452;55.594;12.986;2022-07-23T13:28:20;16.40;99.90
14723;DHT22;7452;55.594;12.986;2022-07-23T13:30:50;16.50;99.90
14723;DHT22;7452;55.594;12.986;2022-07-23T13:33:20;16.50;99.90
14723;DHT22;7452;55.594;12.986;2022-07-23T13:35:48;16.50;99.90
14723;DHT22;7452;55.594;12.986;2022-07-23T13:38:15;16.50;99.90
14723;DHT22;7452;55.594;12.986;2022-07-23T13:40:44;16.50;99.90
14723;DHT22;7452;55.594;12.986;2022-07-23T13:43:13;16.50;99.90
14723;DHT22;7452;55.594;12.986;2022-07-23T13:45:41;16.50;99.90
14723;DHT22;7452;55.594;12.986;2022-07-23T13:48:10;16.30;99.90
14723;DHT22;7452;55.594;12.986;2022-07-23T13:50:40;16.20;99.90
14723;DHT22;7452;55.594;12.986;2022-07-23T13:53:09;16.00;99.90
14723;DHT22;7452;55.594;12.986;2022-07-23T13:55:37;15.90;99.90
14723;DHT22;7452;55.594;12.986;2022-07-23T13:58:05;15.80;99.90
14723;DHT22;7452;55.594;12.986;2022-07-23T14:00:34;15.70;99.90
14723;DHT22;7452;55.594;12.986;2022-07-23T14:03:02;15.60;99.90
14723;DHT22;7452;55.594;12.986;2022-07-23T14:05:29;15.60;99.90
14723;DHT22;7452;55.594;12.986;2022-07-23T14:07:58;15.60;99.90
14723;DHT22;7452;55.594;12.986;2022-07-23T14:10:25;15.60;99.90
14723;DHT22;7452;55.594;12.986;2022-07-23T14:12:53;15.60;99.90
14723;DHT22;7452;55.594;12.986;2022-07-23T14:15:22;15.60;99.90
14723;DHT22;7452;55.594;12.986;2022-07-23T14:17:50;15.60;99.90
14723;DHT22;7452;55.594;12.986;2022-07-23T14:20:16;15.60;99.90
14723;DHT22;7452;55.594;12.986;2022-07-23T14:22:44;15.60;99.90
14723;DHT22;7452;55.594;12.986;2022-07-23T14:25:13;15.60;99.90
14723;DHT22;7452;55.594;12.986;2022-07-23T14:27:40;15.50;99.90
14723;DHT22;7452;55.594;12.986;2022-07-23T14:30:08;15.60;99.90
14723;DHT22;7452;55.594;12.986;2022-07-23T14:32:35;15.50;99.90
14723;DHT22;7452;55.594;12.986;2022-07-23T14:35:04;15.60;99.90
14723;DHT22;7452;55.594;12.986;2022-07-23T14:37:31;15.60;99.90
14723;DHT22;7452;55.594;12.986;2022-07-23T14:39:58;15.60;99.90
14723;DHT22;7452;55.594;12.986;2022-07-23T14:42:27;15.60;99.90
14723;DHT22;7452;55.594;12.986;2022-07-23T14:44:54;15.60;99.90
14723;DHT22;7452;55.594;12.986;2022-07-23T14:47:21;15.60;99.90
14723;DHT22;7452;55.594;12.986;2022-07-23T14:49:48;15.60;99.90
14723;DHT22;7452;55.594;12.986;2022-07-23T14:52:15;15.60;99.90
14723;DHT22;7452;55.594;12.986;2022-07-23T14:54:42;15.60;99.90
14723;DHT22;7452;55.594;12.986;2022-07-23T14:57:09;15.60;99.90
14723;DHT22;7452;55.594;12.986;2022-07-23T14:59:37;15.60;99.90
14723;DHT22;7452;55.594;12.986;2022-07-23T15:02:07;15.50;99.90
14723;DHT22;7452;55.594;12.986;2022-07-23T15:04:34;15.50;99.90
14723;DHT22;7452;55.594;12.986;2022-07-23T15:07:02;15.50;99.90
14723;DHT22;7452;55.594;12.986;2022-07-23T15:09:29;15.50;99.90
14723;DHT22;7452;55.594;12.986;2022-07-23T15:11:56;15.50;99.90
14723;DHT22;7452;55.594;12.986;2022-07-23T15:14:23;15.50;99.90
14723;DHT22;7452;55.594;12.986;2022-07-23T15:16:51;15.50;99.90
14723;DHT22;7452;55.594;12.986;2022-07-23T15:19:18;15.60;99.90
14723;DHT22;7452;55.594;12.986;2022-07-23T15:21:45;15.60;99.90
14723;DHT22;7452;55.594;12.986;2022-07-23T15:24:12;15.60;99.90
14723;DHT22;7452;55.594;12.986;2022-07-23T15:26:39;15.60;99.90
14723;DHT22;7452;55.594;12.986;2022-07-23T15:29:06;15.60;99.90
14723;DHT22;7452;55.594;12.986;2022-07-23T15:31:33;15.60;99.90
14723;DHT22;7452;55.594;12.986;2022-07-23T15:34:02;15.60;99.90
14723;DHT22;7452;55.594;12.986;2022-07-23T15:36:29;15.60;99.90
14723;DHT22;7452;55.594;12.986;2022-07-23T15:38:56;15.50;99.90
14723;DHT22;7452;55.594;12.986;2022-07-23T15:41:23;15.60;99.90